Kellyville, OK

1:36 AM CDT on August 23, 2014 (GMT -0500)
HADS POLECAT CREEK AT HEYBURN LAKE NE OK US USARMY-COE | Change Station
CLOSE
Current Station
Personal Weather Station
Location: Kellyville, OK
Elevation: 831 ft
Nearby Weather Stations

Elev 831 ft 35.95 °N, 96.30 °W | Updated 36 minutes ago

Clear
Clear
77 °F
Feels Like 79 °F
N
2
Wind Variable Wind from SSE
Gusts 0.0 mph

Today
High -- | Low -- °F
--% Chance of Precip.
Yesterday
High -- | Low -- °F
Precip. -- in
6:49 AM 8:04 PM
Waning Crescent, 5% visible
Pressure 29.95 in
Visibility 10.0 miles
Clouds Clear
Heat Index 79 °F
Dew Point 64 °F
Humidity 64%
Rainfall 0.00 in
Snow Depth Not available.
UV 0 out of 12
Pollen 9.60 out of 12
Ozone Good
PM2.5 Moderate
Flu Activity Not available.
METAR KRVS 230553Z AUTO 17004KT 10SM CLR 28/21 A2994 RMK AO2 SLP140 T02830206 10361 20283 403890233 51007

More Conditions Fewer Conditions

Pressure 29.95 in
Visibility 10.0 miles
Clouds Clear
Heat Index 79 °F
Dew Point 64 °F
Humidity 64%
Rainfall 0.00 in
Snow Depth Not available.
UV 0 out of 12
Pollen 9.60 out of 12
Ozone Good
PM2.5 Moderate
Flu Activity Not available.
METAR KRVS 230553Z AUTO 17004KT 10SM CLR 28/21 A2994 RMK AO2 SLP140 T02830206 10361 20283 403890233 51007

More Conditions Fewer Conditions

10-Day Weather Forecast

Almanac

Astronomy

Aug. 23, 2014 Rise Set
Actual Time 6:49 AM CDT 8:04 PM CDT
Civil Twilight 6:23 AM CDT 8:31 PM CDT
Nautical Twilight 5:51 AM CDT 9:02 PM CDT
Astronomical Twilight 5:17 AM CDT 9:35 PM CDT
Moon 5:08 AM CDT 6:49 PM CDT
Length of Visible Light 14h 08m
Length of Day
13h 14m
Tomorrow will be 2m 7s shorter.
Waning Crescent, 5% of the Moon is Illuminated
Today
Waning Crescent
Aug 25
New
Sep 2
First Quarter
Sep 8
Full
Sep 15
Last Quarter

Today's Extremes

State Highs State Lows

Community

WunderPhotos

Upload Photos

1,746,371 photos uploaded!

WunderBlogs® & News

By Dr. Jeff Masters
Director of Meteorology, Weather Underground
By Kari Strenfel
Meteorologist, Weather Underground
By Christopher C. Burt
Weather Historian, Weather Underground
August 23, 2014
August 23, 2014
August 22, 2014

Nearby

Air Quality

  Air Quality AQ Index Pollutant
Yesterday Moderate
PM2.5
Yesterday Good
OZONE
Current Moderate
PM2.5
Current Good
OZONE
Friday Moderate
PM2.5
Friday Good
OZONE
Saturday Moderate
PM2.5
Saturday Good
OZONE
Sunday Moderate
PM2.5
Sunday Good
OZONE
Monday Moderate
PM2.5
Monday Good
OZONE

Snow Depth

Station Depth Elevation
No new snow has been reported.

Earthquake Activity

City Distance Mag. Time & Date
Waukomis, Oklahoma 86 miles 2.6 9:40 AM CDT
2014-08-18
Yale, Oklahoma 37 miles 2.5 8:07 AM CDT
2014-08-18
Boley, Oklahoma 42 miles 3.4 9:50 PM CDT
2014-08-17
Medford, Oklahoma 111 miles 2.9 6:30 PM CDT
2014-08-17
Minimum magnitude displayed is 2.5.

Coastal Water Temperatures

Place Temperature
No Stations Reporting

Nearby Weather Stations